Laona, Minnesota
Current Conditions -  °F | °C
As of 2:54 PM on Saturday 20 Dec 2014 (Local Time) from KRRT Reporting Station
Haze Haze  
Wind Chill: 21°   Ceiling: 700
Heat Index: 28°   Visibility: 5mi
Dew Point: 25°   Wind: 7mph
Humidity: 86%   Direction: 190°S
Pressure: 29.96"   Gusts: NA
Location:  48.6345°N, 95.1786°W
Report Text: KRRT 202054Z AUTO 19006KT 5SM BR OVC007 M02/M04 A2996 RMK AO2
Loading
Personal Weather Stations






























Interactive Weather Map New forecast layout! Learn more

10-Day Weather Forecast

Advertisements
Track Severe Weather on mobile